Herschel Island, Yukon

Past 24 Hour Conditions

This table is a summary of hourly weather conditions for the past 24 hours. This summary includes the following parameters: temperature, humidity, dew point, wind speed and direction, air pressure, visibility and/or wind chill and humidex.
Date / Time
(PDT)
Conditions Temp (°F) Humidity (%) Dew Point (°F) Wind (mph) Pressure (inches) Vis (mi) Wind Chill
01 October 2014
1:00 N/A 33 94 31 WNW 19 30.0 N/A *
00:00 N/A 33 94 32 WNW 14 30.0 N/A *
30 September 2014
23:00 N/A 33 94 32 NW 13 30.0 N/A *
22:00 N/A 33 93 31 NW 14 30.0 N/A *
21:00 N/A 34 91 32 NW 18 29.9 N/A *
20:00 N/A 33 91 31 NW 19 gust 25 29.9 N/A *
19:00 N/A 33 86 29 NW 11 29.9 N/A *
18:00 N/A 36 78 30 NW 12 29.9 N/A *
17:00 N/A 40   74 32 calm 29.9 N/A *
16:00 N/A 38 80 32 ESE 2 29.8 N/A *
15:00 N/A 37 81 32 ESE 5 29.8 N/A *
14:00 N/A 37 81 32 SE 5 29.8 N/A *
13:00 N/A 37 84 33 SE 4 29.8 N/A *
12:00 N/A 35 91 32 ESE 5 29.8 N/A *
11:00 N/A 31 96 30 ESE 4 29.8 N/A 28
10:00 N/A 30 97 29 N 2 29.8 N/A 28
9:00 N/A 31 97 30 calm 29.8 N/A 30
8:00 N/A N/A N/A N/A N/A N/A N/A *
7:00 N/A 28   97 28 calm 29.8 N/A *
6:00 N/A 29 96 28 NW 6 29.8 N/A 23
5:00 N/A 31 95 30 NW 8 29.8 N/A 24
4:00 N/A 33 94 32 WNW 10 29.8 N/A *
3:00 N/A 33 93 31 WNW 5 29.8 N/A *
2:00 N/A 33 94 32 NW 13 29.8 N/A *
1:00 N/A 33 95 32 NW 10 29.8 N/A *
N/A
Not available
 ↑ 
Highest temperature
 ↓ 
Lowest temperature
*
Value not significant.

If you require additional historical weather information, please visit Climate Data Online.